createdAt,value
2023-02-04T00:03:28.883Z,75.91
2023-02-04T00:07:29.706Z,74.32
2023-02-04T00:11:32.676Z,75.05
2023-02-04T00:15:35.664Z,74.48
2023-02-04T00:19:41.511Z,73.28
2023-02-04T00:23:53.563Z,73.70
2023-02-04T00:27:54.717Z,71.01
2023-02-04T00:32:02.009Z,71.74
2023-02-04T00:36:05.216Z,70.12
2023-02-04T00:40:07.332Z,69.64
2023-02-04T00:44:08.344Z,69.31
2023-02-04T00:48:09.234Z,69.00
2023-02-04T00:52:14.942Z,68.89
2023-02-04T00:56:16.093Z,68.96
2023-02-04T01:00:21.488Z,68.09
2023-02-04T01:04:26.281Z,68.72
2023-02-04T01:08:36.533Z,67.95
2023-02-04T01:12:39.470Z,68.43
2023-02-04T01:16:42.482Z,68.47
2023-02-04T01:20:46.177Z,67.05
2023-02-04T01:24:52.027Z,67.19
2023-02-04T01:29:13.487Z,67.01
2023-02-04T01:33:14.280Z,67.55
2023-02-04T01:37:25.440Z,65.93
2023-02-04T01:41:43.563Z,65.59
2023-02-04T01:45:48.906Z,64.89
2023-02-04T01:49:56.301Z,65.63
2023-02-04T01:53:57.484Z,65.83
2023-02-04T01:58:02.548Z,66.54
2023-02-04T02:02:06.222Z,65.04
2023-02-04T02:06:09.360Z,65.00
2023-02-04T02:10:14.483Z,65.36
2023-02-04T02:14:21.915Z,64.82
2023-02-04T02:18:25.378Z,64.87
2023-02-04T02:22:38.443Z,65.49
2023-02-04T02:26:42.542Z,64.79
2023-02-04T02:30:49.272Z,64.74
2023-02-04T02:34:52.418Z,64.99
2023-02-04T02:38:53.388Z,65.11
2023-02-04T02:42:58.624Z,65.24
2023-02-04T02:46:59.401Z,65.59
2023-02-04T02:51:00.544Z,65.27
2023-02-04T02:55:01.298Z,65.80
2023-02-04T02:59:23.751Z,65.94
2023-02-04T03:03:30.971Z,66.14
2023-02-04T03:07:31.698Z,65.77
2023-02-04T03:11:32.793Z,67.05
2023-02-04T03:15:40.249Z,67.58
2023-02-04T03:19:42.680Z,67.31
2023-02-04T03:23:45.312Z,67.72
2023-02-04T03:27:47.809Z,68.17
2023-02-04T03:31:52.824Z,68.42
2023-02-04T03:35:56.035Z,68.46
2023-02-04T03:39:56.849Z,68.15
2023-02-04T03:43:59.524Z,68.08
2023-02-04T03:48:04.569Z,67.35
2023-02-04T03:52:08.196Z,67.59
2023-02-04T03:56:10.605Z,67.34
2023-02-04T04:00:13.843Z,66.88
2023-02-04T04:04:17.303Z,67.90
2023-02-04T04:08:18.507Z,68.09
2023-02-04T04:12:20.347Z,68.81
2023-02-04T04:16:20.990Z,68.67
2023-02-04T04:20:25.875Z,68.94
2023-02-04T04:24:27.884Z,68.78
2023-02-04T04:28:28.662Z,69.02
2023-02-04T04:32:29.174Z,69.50
2023-02-04T04:36:32.336Z,69.96
2023-02-04T04:40:34.287Z,70.17
2023-02-04T04:44:35.418Z,70.23
2023-02-04T04:48:36.454Z,70.69
2023-02-04T04:52:41.872Z,74.67
2023-02-04T04:56:42.208Z,78.20
2023-02-04T05:00:43.601Z,82.22
2023-02-04T05:04:44.907Z,83.59
2023-02-04T05:08:51.099Z,83.73
2023-02-04T05:12:52.624Z,84.71
2023-02-04T05:16:55.643Z,84.80
2023-02-04T05:20:58.198Z,84.16
2023-02-04T05:25:04.557Z,82.68
2023-02-04T05:29:10.432Z,82.15
2023-02-04T05:33:11.090Z,82.74
2023-02-04T05:37:15.753Z,80.28
2023-02-04T05:41:19.119Z,80.66
2023-02-04T05:45:23.684Z,80.86
2023-02-04T05:49:25.221Z,80.65
2023-02-04T05:53:26.272Z,80.93
2023-02-04T05:57:29.885Z,81.27
2023-02-04T06:01:31.972Z,81.38
2023-02-04T06:05:37.808Z,80.46
2023-02-04T06:09:38.669Z,80.73
2023-02-04T06:13:42.484Z,79.73
2023-02-04T06:17:44.067Z,79.93
2023-02-04T06:21:44.461Z,79.17
2023-02-04T06:25:45.402Z,79.30
2023-02-04T06:29:50.233Z,79.66
2023-02-04T06:33:51.460Z,79.74
2023-02-04T06:37:54.114Z,78.49
2023-02-04T06:41:56.491Z,79.39
2023-02-04T06:45:59.634Z,80.05
2023-02-04T06:50:02.203Z,80.29
2023-02-04T06:54:03.519Z,80.26
2023-02-04T06:58:03.988Z,80.02
2023-02-04T07:02:10.044Z,80.35
2023-02-04T07:06:10.846Z,80.02
2023-02-04T07:10:12.774Z,80.35
2023-02-04T07:14:15.576Z,80.10
2023-02-04T07:18:20.120Z,79.95
2023-02-04T07:22:21.160Z,79.93
2023-02-04T07:26:22.842Z,80.53
2023-02-04T07:30:24.799Z,80.87
2023-02-04T07:34:28.382Z,80.61
2023-02-04T07:38:30.027Z,80.26
2023-02-04T07:42:30.824Z,79.63
2023-02-04T07:46:43.336Z,78.56
2023-02-04T07:50:49.326Z,78.32
2023-02-04T07:54:49.888Z,77.49
2023-02-04T07:58:53.636Z,76.25
2023-02-04T08:02:56.805Z,76.44
2023-02-04T08:07:00.954Z,75.89
2023-02-04T08:11:09.027Z,73.95
2023-02-04T08:15:13.222Z,73.29
2023-02-04T08:19:18.998Z,74.38
2023-02-04T08:23:22.870Z,73.24
2023-02-04T08:27:23.805Z,72.49
2023-02-04T08:31:24.658Z,71.09
2023-02-04T08:35:25.565Z,69.75
2023-02-04T08:39:29.718Z,68.76
2023-02-04T08:43:31.337Z,67.57
2023-02-04T08:47:34.395Z,66.63
2023-02-04T08:51:37.503Z,65.75
2023-02-04T08:55:40.846Z,63.13
2023-02-04T08:59:41.347Z,60.65
2023-02-04T09:03:42.473Z,58.66
2023-02-04T09:07:48.332Z,58.22
2023-02-04T09:11:53.055Z,57.69
2023-02-04T09:15:55.626Z,56.14
2023-02-04T09:19:56.740Z,51.66
2023-02-04T09:24:04.360Z,54.49
2023-02-04T09:28:10.233Z,51.49
2023-02-04T09:32:17.557Z,51.49
2023-02-04T09:36:18.974Z,52.11
2023-02-04T09:40:22.784Z,51.50
2023-02-04T09:44:30.774Z,51.29
2023-02-04T09:48:31.808Z,53.17
2023-02-04T09:52:34.167Z,50.18
2023-02-04T09:56:35.030Z,48.52
2023-02-04T10:00:43.888Z,46.37
2023-02-04T10:04:44.729Z,46.16
2023-02-04T10:08:47.921Z,46.01
2023-02-04T10:12:56.852Z,46.33
2023-02-04T10:17:04.986Z,47.33
2023-02-04T10:21:21.258Z,47.56
2023-02-04T10:25:25.481Z,48.44
2023-02-04T10:29:27.851Z,47.53
2023-02-04T10:33:31.957Z,47.82
2023-02-04T10:37:33.512Z,47.31
2023-02-04T10:41:38.788Z,45.42
2023-02-04T10:45:39.641Z,45.34
2023-02-04T10:49:43.274Z,45.71
2023-02-04T10:53:56.193Z,45.17
2023-02-04T10:58:02.382Z,46.12
2023-02-04T11:02:19.642Z,47.39
2023-02-04T11:06:27.371Z,46.47
2023-02-04T11:10:35.262Z,47.45
2023-02-04T11:14:35.767Z,47.24
2023-02-04T11:18:50.376Z,46.51
2023-02-04T11:22:54.886Z,46.60
2023-02-04T11:27:09.300Z,45.13
2023-02-04T11:31:32.065Z,43.00
2023-02-04T11:35:34.078Z,42.61
2023-02-04T11:39:42.565Z,41.78
2023-02-04T11:43:43.261Z,43.69
2023-02-04T11:47:46.351Z,44.47
2023-02-04T11:51:47.930Z,45.57
2023-02-04T11:55:51.141Z,40.84
2023-02-04T11:59:51.857Z,38.50
2023-02-04T12:04:01.322Z,36.05
2023-02-04T12:08:17.336Z,38.10
2023-02-04T12:12:28.924Z,39.73
2023-02-04T12:16:30.671Z,41.14
2023-02-04T12:20:31.467Z,43.57
2023-02-04T12:24:32.021Z,44.92
2023-02-04T12:28:35.226Z,45.54
2023-02-04T12:32:37.918Z,44.63
2023-02-04T12:36:38.780Z,44.82
2023-02-04T12:40:43.485Z,41.12
2023-02-04T12:44:47.556Z,38.15
2023-02-04T12:48:50.610Z,37.45
2023-02-04T12:52:53.914Z,38.62
2023-02-04T12:56:58.196Z,40.12
2023-02-04T13:01:04.155Z,41.35
2023-02-04T13:05:05.024Z,43.12
2023-02-04T13:09:06.083Z,43.28
2023-02-04T13:13:07.648Z,42.92
2023-02-04T13:17:11.980Z,39.98
2023-02-04T13:21:12.595Z,34.64
2023-02-04T13:25:14.909Z,31.95
2023-02-04T13:29:17.906Z,28.77
2023-02-04T13:33:21.017Z,28.68
2023-02-04T13:37:23.645Z,28.26
2023-02-04T13:41:23.988Z,29.04
2023-02-04T13:45:25.953Z,28.52
2023-02-04T13:49:30.490Z,29.63
2023-02-04T13:53:32.031Z,31.67
2023-02-04T13:57:33.356Z,33.45
2023-02-04T14:01:33.951Z,35.22
2023-02-04T14:05:38.561Z,37.62
2023-02-04T14:09:41.085Z,39.46
2023-02-04T14:13:41.628Z,40.87
2023-02-04T14:17:44.519Z,41.70
2023-02-04T14:21:50.349Z,42.40
2023-02-04T14:25:50.827Z,42.91
2023-02-04T14:29:51.324Z,42.77
2023-02-04T14:33:52.332Z,43.39
2023-02-04T14:37:55.712Z,42.38
2023-02-04T14:41:56.356Z,42.67
2023-02-04T14:45:57.353Z,41.52
2023-02-04T14:50:00.978Z,39.32
2023-02-04T14:54:03.921Z,37.19
2023-02-04T14:58:04.942Z,36.39
2023-02-04T15:02:07.206Z,35.46
2023-02-04T15:06:13.489Z,36.02
2023-02-04T15:10:18.156Z,36.07
2023-02-04T15:14:19.036Z,36.38
2023-02-04T15:18:20.504Z,36.85
2023-02-04T15:22:21.180Z,38.96
2023-02-04T15:26:25.195Z,40.41
2023-02-04T15:30:26.442Z,41.70
2023-02-04T15:34:27.298Z,42.58
2023-02-04T15:38:28.324Z,43.77
2023-02-04T15:42:33.460Z,43.64
2023-02-04T15:46:35.026Z,44.86
2023-02-04T15:50:38.554Z,44.20
2023-02-04T15:54:40.266Z,44.58
2023-02-04T15:58:43.321Z,44.28
2023-02-04T16:02:44.535Z,45.22
2023-02-04T16:06:58.054Z,46.45
2023-02-04T16:10:59.635Z,48.26
2023-02-04T16:15:02.875Z,49.61
2023-02-04T16:19:03.891Z,50.91
2023-02-04T16:23:04.451Z,51.85
2023-02-04T16:27:04.732Z,52.23
2023-02-04T16:31:09.857Z,52.59
2023-02-04T16:35:12.121Z,53.38
2023-02-04T16:39:14.154Z,54.13
2023-02-04T16:43:14.875Z,54.45
2023-02-04T16:47:18.007Z,55.17
2023-02-04T16:51:20.631Z,55.52
2023-02-04T16:55:21.309Z,56.00
2023-02-04T16:59:21.921Z,55.86
2023-02-04T17:03:25.186Z,55.35
2023-02-04T17:07:25.811Z,55.53
2023-02-04T17:11:33.139Z,56.79
2023-02-04T17:15:33.991Z,58.23
2023-02-04T17:19:47.257Z,57.44
2023-02-04T17:23:48.194Z,57.35
2023-02-04T17:27:50.710Z,57.77
2023-02-04T17:31:53.137Z,57.64
2023-02-04T17:35:56.816Z,57.55
2023-02-04T17:39:57.203Z,59.39
2023-02-04T17:43:59.115Z,60.20
2023-02-04T17:48:00.155Z,60.47
2023-02-04T17:52:04.558Z,61.46
2023-02-04T17:56:06.434Z,61.99
2023-02-04T18:00:17.326Z,62.58
2023-02-04T18:04:18.163Z,63.24
2023-02-04T18:08:25.067Z,64.20
2023-02-04T18:12:28.674Z,64.47
2023-02-04T18:16:34.059Z,64.21
2023-02-04T18:20:37.871Z,64.62
2023-02-04T18:24:45.178Z,65.62
2023-02-04T18:28:50.451Z,66.22
2023-02-04T18:32:53.596Z,66.21
2023-02-04T18:36:55.386Z,66.01
2023-02-04T18:41:18.476Z,67.30
2023-02-04T18:45:28.592Z,67.42
2023-02-04T18:49:33.501Z,67.48
2023-02-04T18:53:40.773Z,67.63
2023-02-04T18:57:47.498Z,68.41
2023-02-04T19:01:51.446Z,68.50
2023-02-04T19:05:53.663Z,70.57
2023-02-04T19:09:55.031Z,70.10
2023-02-04T19:14:05.184Z,70.49
2023-02-04T19:18:25.741Z,74.07
2023-02-04T19:22:40.613Z,73.09
2023-02-04T19:26:56.396Z,72.29
2023-02-04T19:31:04.450Z,72.05
2023-02-04T19:35:22.867Z,72.79
2023-02-04T19:39:39.146Z,73.00
2023-02-04T19:43:45.897Z,73.08
2023-02-04T19:47:56.010Z,73.21
2023-02-04T19:52:02.182Z,73.40
2023-02-04T19:56:04.664Z,73.81
2023-02-04T20:00:06.308Z,73.74
2023-02-04T20:04:23.600Z,73.78
2023-02-04T20:08:55.127Z,73.00
2023-02-04T20:13:02.695Z,73.00
2023-02-04T20:17:14.083Z,73.91
2023-02-04T20:21:18.370Z,74.65
2023-02-04T20:25:49.221Z,74.19
2023-02-04T20:29:58.930Z,74.61
2023-02-04T20:34:03.606Z,74.57
2023-02-04T20:38:20.578Z,74.26
2023-02-04T20:42:48.293Z,74.68
2023-02-04T20:46:52.872Z,75.02
2023-02-04T20:50:58.761Z,75.26
2023-02-04T20:55:07.002Z,76.92
2023-02-04T20:59:37.572Z,76.80
2023-02-04T21:03:47.846Z,76.58
2023-02-04T21:07:49.114Z,75.98
2023-02-04T21:11:56.295Z,75.93
2023-02-04T21:16:02.145Z,75.44
2023-02-04T21:20:02.957Z,75.98
2023-02-04T21:24:13.793Z,75.96
2023-02-04T21:28:18.756Z,75.82
2023-02-04T21:32:25.954Z,74.98
2023-02-04T21:36:28.323Z,74.63
2023-02-04T21:40:29.966Z,74.54
2023-02-04T21:44:33.916Z,74.85
2023-02-04T21:48:41.761Z,74.68
2023-02-04T21:52:45.098Z,74.84
2023-02-04T21:56:48.724Z,75.52
2023-02-04T22:00:54.224Z,75.94
2023-02-04T22:04:56.415Z,76.10
2023-02-04T22:08:57.306Z,75.16
2023-02-04T22:12:58.094Z,75.67
2023-02-04T22:17:01.351Z,75.47
2023-02-04T22:21:02.241Z,75.22
2023-02-04T22:25:02.649Z,76.18
2023-02-04T22:29:03.481Z,77.99
2023-02-04T22:33:08.051Z,77.96
2023-02-04T22:37:08.421Z,77.73
2023-02-04T22:41:09.262Z,78.01
2023-02-04T22:45:12.076Z,77.73
2023-02-04T22:49:19.664Z,78.08
2023-02-04T22:53:20.120Z,79.59
2023-02-04T22:57:20.949Z,80.15
2023-02-04T23:01:21.889Z,80.08
2023-02-04T23:05:25.041Z,79.65
2023-02-04T23:09:25.749Z,78.06
2023-02-04T23:13:26.541Z,80.24
2023-02-04T23:17:27.406Z,78.47
2023-02-04T23:21:30.794Z,77.06
2023-02-04T23:25:32.065Z,77.14
2023-02-04T23:29:35.864Z,76.55
2023-02-04T23:33:36.840Z,76.50
2023-02-04T23:37:40.210Z,76.09
2023-02-04T23:41:40.954Z,76.23
2023-02-04T23:45:43.083Z,77.08
2023-02-04T23:49:44.058Z,76.95
2023-02-04T23:53:48.362Z,78.94
2023-02-04T23:57:50.028Z,78.31
